Time;durP1;ratioP1;P1;durP2;ratioP2;P2;SDS_P1;SDS_P2;PMS_P1;PMS_P2;Temp;Humidity;BMP_temperature;BMP_pressure;BME280_temperature;BME280_humidity;BME280_pressure;Samples;Min_cycle;Max_cycle;Signal;HPM_P1;HPM_P2
2020/12/04 00:02:56;;;;;;;;;;;-2.70;99.90;;;-3.71;87.55;93589.31;10387201;28;1993;-84
2020/12/04 00:07:58;;;;;;;;;;;-2.10;99.90;;;-3.59;87.30;93582.16;10405725;28;1595;-83
2020/12/04 00:13:01;;;;;;;;;;;-2.50;99.90;;;-3.47;86.75;93582.88;10401466;28;1992;-83
2020/12/04 00:18:03;;;;;;;;;;;-0.40;99.90;;;-3.43;86.30;93570.84;10402978;28;2001;-82
2020/12/04 00:23:07;;;;;;;;;;;-1.50;99.90;;;-3.31;85.56;93568.94;10392606;28;2038;-84
2020/12/04 00:28:11;;;;;;;;;;;-4.40;99.90;;;-3.26;85.97;93579.50;10394028;28;1445;-84
2020/12/04 00:33:15;;;;;;;;;;;-2.20;99.90;;;-3.23;85.67;93587.94;10400796;28;1920;-84
2020/12/04 00:38:17;;;;;;;;;;;-2.10;99.90;;;-3.15;85.71;93574.38;10400432;28;1634;-87
2020/12/04 00:43:23;;;;;;;;;;;-0.60;99.90;;;-3.16;85.03;93557.03;10400676;28;2072;-83
2020/12/04 00:48:28;;;;;;;;;;;-2.20;99.90;;;-3.13;85.41;93561.78;10394898;28;1492;-84
2020/12/04 00:53:32;;;;;;;;;;;-1.40;99.90;;;-3.14;85.12;93547.06;10398365;28;1986;-82
2020/12/04 00:58:35;;;;;;;;;;;-2.20;99.90;;;-3.17;85.87;93531.78;10396946;28;2013;-82
2020/12/04 01:03:37;;;;;;;;;;;-1.70;99.90;;;-3.22;85.49;93519.38;10397813;28;1981;-84
2020/12/04 01:08:39;;;;;;;;;;;-2.20;99.90;;;-3.32;85.24;93509.50;10396502;28;1792;-85
2020/12/04 01:13:41;;;;;;;;;;;-2.20;99.90;;;-3.40;85.55;93503.91;10386047;28;1913;-85
2020/12/04 01:18:44;;;;;;;;;;;-2.20;99.90;;;-3.38;86.36;93502.59;10391042;28;1963;-83
2020/12/04 01:23:50;;;;;;;;;;;-1.90;99.90;;;-3.35;85.73;93496.09;10391294;28;2030;-82
2020/12/04 01:28:52;;;;;;;;;;;-0.80;99.90;;;-3.32;86.41;93504.25;10403897;28;1977;-82
2020/12/04 01:33:54;;;;;;;;;;;-0.50;99.90;;;-3.22;85.83;93508.88;10395301;28;1822;-82
2020/12/04 01:38:57;;;;;;;;;;;-2.10;99.90;;;-3.14;85.47;93499.75;10409304;28;1981;-83
2020/12/04 01:44:00;;;;;;;;;;;-2.10;99.90;;;-3.21;85.25;93501.78;10405996;28;1963;-82
2020/12/04 01:49:08;;;;;;;;;;;0.70;99.90;;;-3.18;85.72;93482.88;10376117;28;1837;-82
2020/12/04 01:54:11;;;;;;;;;;;-2.20;99.90;;;-3.26;85.83;93477.00;10397284;28;1793;-82
2020/12/04 01:59:15;;;;;;;;;;;-0.10;99.90;;;-3.32;86.04;93482.44;10419987;28;2242;-85
2020/12/04 02:04:17;;;;;;;;;;;-2.20;99.90;;;-3.41;85.72;93479.47;10422603;28;2052;-85
2020/12/04 02:09:19;;;;;;;;;;;-2.30;99.90;;;-3.46;85.85;93473.34;10419443;28;1735;-87
2020/12/04 02:14:21;;;;;;;;;;;-2.20;99.90;;;-3.51;86.54;93466.19;10411590;28;1569;-83
2020/12/04 02:19:24;;;;;;;;;;;-2.40;99.90;;;-3.60;86.90;93454.53;10410138;28;1683;-82
2020/12/04 02:24:26;;;;;;;;;;;-0.70;99.90;;;-3.69;86.94;93440.22;10396922;28;1960;-83
2020/12/04 02:29:29;;;;;;;;;;;-2.50;99.90;;;-3.82;87.59;93436.94;10406625;28;1999;-82
2020/12/04 02:34:30;;;;;;;;;;;-2.50;99.90;;;-3.90;87.82;93423.41;10385726;28;2018;-83
2020/12/04 02:39:32;;;;;;;;;;;-2.80;99.90;;;-3.98;87.87;93422.00;10400300;28;2024;-83
2020/12/04 02:44:34;;;;;;;;;;;-2.80;99.90;;;-3.94;88.13;93417.06;10393303;28;1879;-83
2020/12/04 02:49:36;;;;;;;;;;;-2.90;99.90;;;-3.96;87.91;93406.78;10391110;28;2109;-84
2020/12/04 02:54:38;;;;;;;;;;;-1.40;99.90;;;-3.92;88.04;93405.28;10401720;28;1828;-83
2020/12/04 02:59:40;;;;;;;;;;;-2.80;99.90;;;-3.98;88.06;93395.75;10395136;28;1799;-82
2020/12/04 03:04:43;;;;;;;;;;;-2.80;99.90;;;-3.94;88.38;93394.22;10393025;28;2346;-84
2020/12/04 03:09:45;;;;;;;;;;;-2.50;99.90;;;-3.98;87.87;93394.94;10391564;28;2076;-82
2020/12/04 03:14:47;;;;;;;;;;;-2.90;99.90;;;-3.91;87.60;93378.00;10398957;28;1871;-84
2020/12/04 03:19:49;;;;;;;;;;;-2.30;99.90;;;-3.96;87.42;93372.66;10391458;28;1930;-82
2020/12/04 03:24:50;;;;;;;;;;;-2.80;99.90;;;-3.91;87.73;93364.88;10392744;28;2053;-83
2020/12/04 03:29:52;;;;;;;;;;;-2.80;99.90;;;-3.84;87.17;93359.44;10420007;28;1779;-86
2020/12/04 03:34:58;;;;;;;;;;;-2.80;99.90;;;-3.70;87.23;93373.00;10411038;28;2135;-87
2020/12/04 03:39:59;;;;;;;;;;;-2.20;99.90;;;-3.68;86.73;93355.97;10413863;28;2016;-84
2020/12/04 03:45:04;;;;;;;;;;;-0.50;99.90;;;-3.72;86.51;93364.56;10400325;28;2031;-84
2020/12/04 03:50:09;;;;;;;;;;;-1.70;99.90;;;-3.72;87.15;93346.19;10394847;28;2232;-85
2020/12/04 03:55:13;;;;;;;;;;;-2.70;99.90;;;-3.72;86.14;93330.44;10398043;28;2124;-83
2020/12/04 04:00:16;;;;;;;;;;;-2.60;99.90;;;-3.74;86.47;93332.53;10401980;28;2045;-84
2020/12/04 04:05:19;;;;;;;;;;;-0.80;99.90;;;-3.57;86.39;93335.84;10405200;28;2080;-83
2020/12/04 04:10:20;;;;;;;;;;;-2.40;99.90;;;-3.40;85.28;93328.69;10395907;28;1970;-84
2020/12/04 04:15:22;;;;;;;;;;;0.00;99.90;;;-3.33;85.19;93329.28;10398723;28;1960;-83
2020/12/04 04:20:27;;;;;;;;;;;-2.50;99.90;;;-3.29;84.86;93342.75;10396386;28;1915;-84
2020/12/04 04:25:31;;;;;;;;;;;-1.60;99.90;;;-3.19;84.58;93331.53;10396973;28;1978;-83
2020/12/04 04:30:33;;;;;;;;;;;-0.10;99.90;;;-3.13;83.74;93323.44;10393780;28;2029;-82
2020/12/04 04:35:35;;;;;;;;;;;-0.50;99.90;;;-3.11;83.98;93325.84;10390354;28;1922;-83
2020/12/04 04:40:39;;;;;;;;;;;-1.00;99.90;;;-3.24;84.67;93321.78;10395086;28;1890;-84
2020/12/04 04:45:43;;;;;;;;;;;-0.30;99.90;;;-3.35;84.76;93318.25;10396487;28;2120;-83
2020/12/04 04:50:45;;;;;;;;;;;-2.40;99.90;;;-3.19;84.57;93319.19;10401658;28;2041;-82
2020/12/04 04:55:47;;;;;;;;;;;-2.20;99.90;;;-3.11;84.14;93315.34;10403073;28;1990;-86
2020/12/04 05:00:50;;;;;;;;;;;-0.40;99.90;;;-2.98;84.08;93299.16;10411224;28;1977;-84
2020/12/04 05:05:52;;;;;;;;;;;-2.00;99.90;;;-2.98;84.21;93299.16;10407303;28;2052;-84
2020/12/04 05:10:58;;;;;;;;;;;-2.00;99.90;;;-2.86;83.62;93302.41;10399310;28;2188;-82
2020/12/04 05:16:00;;;;;;;;;;;-1.90;99.90;;;-2.87;83.66;93306.06;10396620;28;2145;-85
2020/12/04 05:21:02;;;;;;;;;;;-1.80;99.90;;;-2.94;83.75;93300.22;10400287;28;1969;-83
2020/12/04 05:26:03;;;;;;;;;;;-1.80;99.90;;;-3.00;84.36;93311.72;10397062;28;2049;-83
2020/12/04 05:31:05;;;;;;;;;;;-2.00;99.90;;;-2.96;84.99;93318.09;10392309;28;1560;-83
2020/12/04 05:36:11;;;;;;;;;;;-1.90;99.90;;;-3.07;84.69;93324.28;10396838;28;1634;-82
2020/12/04 05:41:15;;;;;;;;;;;-0.60;99.90;;;-3.14;85.13;93324.47;10414727;28;2080;-84
2020/12/04 05:46:19;;;;;;;;;;;-2.10;99.90;;;-3.15;85.25;93314.22;10407704;28;1941;-85
2020/12/04 05:51:23;;;;;;;;;;;-2.00;99.90;;;-3.04;85.49;93323.81;10416534;28;1663;-83
2020/12/04 05:56:25;;;;;;;;;;;-2.00;99.90;;;-2.99;85.18;93313.31;10412154;28;1552;-83
2020/12/04 06:01:29;;;;;;;;;;;-2.00;99.90;;;-2.97;85.29;93319.13;10393913;28;1891;-83
2020/12/04 06:06:37;;;;;;;;;;;-1.90;99.90;;;-2.87;84.49;93311.31;10398633;28;1807;-84
2020/12/04 06:11:42;;;;;;;;;;;-0.50;99.90;;;-2.77;83.76;93321.13;10405994;28;1953;-85
2020/12/04 06:16:44;;;;;;;;;;;-1.80;99.90;;;-2.69;84.32;93327.75;10396279;28;1819;-84
2020/12/04 06:21:46;;;;;;;;;;;-1.70;99.90;;;-2.53;83.91;93332.88;10388516;28;2000;-84
2020/12/04 06:26:49;;;;;;;;;;;-0.30;99.90;;;-2.46;83.71;93335.31;10394399;28;1910;-83
2020/12/04 06:31:52;;;;;;;;;;;-0.60;99.90;;;-2.52;82.95;93331.84;10392619;28;1802;-85
2020/12/04 06:36:54;;;;;;;;;;;-1.40;99.90;;;-2.60;84.05;93331.53;10394656;28;1507;-84
2020/12/04 06:41:56;;;;;;;;;;;-1.60;99.90;;;-2.72;83.76;93324.59;10405715;28;1891;-84
2020/12/04 06:46:59;;;;;;;;;;;-1.60;99.90;;;-2.74;84.21;93326.66;10416132;28;1877;-85
2020/12/04 06:52:15;;;;;;;;;;;-0.40;99.90;;;-2.81;84.77;93318.19;10417632;28;1433;-84
2020/12/04 06:57:17;;;;;;;;;;;0.10;99.90;;;-2.80;85.47;93317.19;10417458;28;2025;-85
2020/12/04 07:02:19;;;;;;;;;;;0.70;99.90;;;-2.69;84.58;93311.97;10389519;28;2070;-84
2020/12/04 07:07:24;;;;;;;;;;;-1.90;99.90;;;-2.59;84.14;93312.06;10392446;28;2038;-83
2020/12/04 07:12:28;;;;;;;;;;;-1.10;99.90;;;-2.43;83.41;93326.09;10417322;28;1794;-83
2020/12/04 07:17:32;;;;;;;;;;;-1.50;99.90;;;-2.31;83.08;93318.81;10420148;28;2078;-85
2020/12/04 07:22:36;;;;;;;;;;;-0.70;99.90;;;-2.31;82.71;93324.88;10413502;28;1984;-83
2020/12/04 07:27:38;;;;;;;;;;;-1.30;99.90;;;-2.31;82.54;93324.09;10400645;28;2319;-82
2020/12/04 07:32:40;;;;;;;;;;;-1.30;99.90;;;-2.23;83.27;93331.50;10396843;28;1897;-81
2020/12/04 07:37:42;;;;;;;;;;;-0.40;99.90;;;-2.09;81.65;93318.69;10395646;28;1970;-81
2020/12/04 07:42:44;;;;;;;;;;;-1.20;99.90;;;-2.01;80.94;93315.56;10394899;28;2088;-82
2020/12/04 07:47:46;;;;;;;;;;;-1.00;99.90;;;-2.00;80.70;93304.78;10391510;28;1975;-82
2020/12/04 07:52:51;;;;;;;;;;;-1.00;99.90;;;-1.79;80.80;93304.88;10408014;28;1853;-80
2020/12/04 07:57:53;;;;;;;;;;;-0.80;99.90;;;-1.69;80.61;93312.81;10416272;28;2170;-82
2020/12/04 08:02:56;;;;;;;;;;;-0.70;99.90;;;-1.43;79.47;93313.69;10410328;28;1887;-82
2020/12/04 08:07:58;;;;;;;;;;;-0.50;99.90;;;-1.43;79.02;93297.88;10393283;28;1574;-82
2020/12/04 08:13:00;;;;;;;;;;;0.90;99.90;;;-1.28;78.54;93295.28;10391808;28;2028;-82
2020/12/04 08:18:02;;;;;;;;;;;-0.30;99.90;;;-1.18;78.52;93294.53;10419844;28;1324;-80
2020/12/04 08:23:04;;;;;;;;;;;-0.30;99.90;;;-1.06;77.80;93297.72;10417445;28;1888;-83
2020/12/04 08:28:07;;;;;;;;;;;-0.10;99.90;;;-0.97;77.38;93284.78;10419153;28;1834;-83
2020/12/04 08:33:10;;;;;;;;;;;1.00;99.90;;;-0.76;77.90;93296.94;10411603;28;1835;-82
2020/12/04 08:38:14;;;;;;;;;;;0.20;99.90;;;-0.52;76.16;93296.41;10405596;28;1986;-83
2020/12/04 08:43:16;;;;;;;;;;;0.40;99.90;;;-0.43;76.30;93308.00;10406273;28;1890;-82
2020/12/04 08:48:18;;;;;;;;;;;0.50;99.90;;;-0.34;76.35;93319.59;10397680;28;1993;-83
2020/12/04 08:53:20;;;;;;;;;;;0.60;99.90;;;-0.23;75.15;93313.25;10409196;28;1858;-83
2020/12/04 08:58:22;;;;;;;;;;;0.70;99.90;;;-0.19;75.27;93316.97;10410616;28;2025;-82
2020/12/04 09:03:26;;;;;;;;;;;0.70;99.90;;;0.05;74.31;93330.38;10388120;28;2057;-81
2020/12/04 09:08:31;;;;;;;;;;;0.90;99.90;;;-0.08;73.88;93318.50;10386160;28;2177;-83
2020/12/04 09:13:39;;;;;;;;;;;1.00;99.90;;;-0.31;75.65;93308.53;10393018;28;1873;-83
2020/12/04 09:18:40;;;;;;;;;;;0.80;99.90;;;-0.18;75.20;93302.69;10390800;28;2050;-81
2020/12/04 09:23:42;;;;;;;;;;;2.30;99.90;;;-0.14;75.59;93302.94;10391025;28;1906;-81
2020/12/04 09:28:44;;;;;;;;;;;0.80;99.90;;;-0.19;75.72;93301.13;10409593;28;1922;-83
2020/12/04 09:33:46;;;;;;;;;;;2.70;99.90;;;-0.17;75.32;93291.06;10391838;28;2137;-82
2020/12/04 09:38:48;;;;;;;;;;;0.80;99.90;;;0.08;74.58;93292.06;10407096;28;1974;-80
2020/12/04 09:43:50;;;;;;;;;;;1.00;99.90;;;0.23;74.01;93265.59;10399773;28;1891;-82
2020/12/04 09:48:51;;;;;;;;;;;1.10;99.90;;;0.20;74.10;93259.00;10393774;28;1634;-84
2020/12/04 09:53:54;;;;;;;;;;;1.10;99.90;;;0.36;74.24;93265.00;10388380;28;2025;-82
2020/12/04 09:58:56;;;;;;;;;;;1.20;99.90;;;0.57;73.55;93254.31;10393176;28;1834;-82
2020/12/04 10:04:01;;;;;;;;;;;2.30;99.90;;;0.71;73.36;93242.09;10393863;28;1968;-83
2020/12/04 10:09:06;;;;;;;;;;;1.50;99.90;;;0.93;72.18;93237.19;10385790;28;2078;-81
2020/12/04 10:14:08;;;;;;;;;;;2.90;99.90;;;1.04;71.83;93235.25;10391318;28;2070;-81
2020/12/04 10:19:10;;;;;;;;;;;1.90;99.90;;;1.04;71.86;93238.69;10399417;28;1517;-81
2020/12/04 10:24:14;;;;;;;;;;;3.10;99.90;;;1.05;72.44;93220.97;10397939;28;1992;-81
2020/12/04 10:29:16;;;;;;;;;;;3.00;99.90;;;1.10;72.56;93220.94;10402459;28;1654;-81
2020/12/04 10:34:18;;;;;;;;;;;2.10;99.90;;;1.23;71.61;93209.72;10407719;28;1702;-81
2020/12/04 10:39:20;;;;;;;;;;;2.20;99.90;;;0.98;72.36;93216.00;10390018;28;1788;-84
2020/12/04 10:44:33;;;;;;;;;;;2.00;99.90;;;0.71;73.57;93202.44;10414608;28;1980;-84
2020/12/04 10:49:38;;;;;;;;;;;2.80;99.90;;;0.41;74.87;93190.19;10412538;28;2011;-84
2020/12/04 10:54:40;;;;;;;;;;;1.50;99.90;;;0.44;75.46;93176.44;10400769;28;2054;-84
2020/12/04 10:59:41;;;;;;;;;;;1.40;99.90;;;0.51;74.70;93177.72;10398906;28;2095;-82
2020/12/04 11:10:10;;;;;;;;;;;1.50;99.90;;;0.71;75.53;93152.22;10390434;28;1556;-82
2020/12/04 11:15:14;;;;;;;;;;;1.70;99.90;;;0.90;74.55;93161.06;10417270;28;1981;-81
2020/12/04 11:20:21;;;;;;;;;;;3.10;99.90;;;1.10;73.15;93156.66;10418369;28;1944;-85
2020/12/04 11:25:23;;;;;;;;;;;4.10;99.90;;;1.16;73.41;93155.53;10395348;28;1878;-84
2020/12/04 11:30:24;;;;;;;;;;;2.10;99.90;;;1.36;72.66;93150.03;10394795;28;1834;-85
2020/12/04 11:35:26;;;;;;;;;;;2.20;99.90;;;1.46;72.79;93127.97;10396638;28;1540;-86
2020/12/04 11:40:28;;;;;;;;;;;3.20;99.90;;;1.53;72.42;93139.03;10397769;28;2036;-86
2020/12/04 11:45:31;;;;;;;;;;;4.10;99.90;;;1.67;71.86;93129.31;10412038;28;1983;-84
2020/12/04 11:50:33;;;;;;;;;;;2.70;99.90;;;1.71;71.90;93126.88;10402703;28;1923;-85
2020/12/04 11:55:35;;;;;;;;;;;2.70;99.90;;;1.72;72.48;93112.56;10411952;28;1925;-84
2020/12/04 12:00:37;;;;;;;;;;;4.40;99.90;;;1.91;71.85;93108.13;10386830;28;1998;-85
2020/12/04 12:05:39;;;;;;;;;;;2.70;99.90;;;2.22;70.39;93103.19;10390872;28;1947;-85
2020/12/04 12:10:41;;;;;;;;;;;3.10;99.90;;;2.38;69.31;93086.00;10391658;28;1687;-84
2020/12/04 12:15:43;;;;;;;;;;;3.40;99.90;;;2.47;69.10;93083.47;10378412;28;1972;-84
2020/12/04 12:20:45;;;;;;;;;;;3.40;99.90;;;2.64;68.20;93073.13;10397835;28;1944;-84
2020/12/04 12:25:46;;;;;;;;;;;3.90;99.90;;;2.82;67.21;93084.78;10399253;28;1941;-84
2020/12/04 12:30:48;;;;;;;;;;;3.70;99.90;;;2.91;66.61;93084.88;10394979;28;2039;-84
2020/12/04 12:35:53;;;;;;;;;;;3.80;99.90;;;3.09;66.40;93084.03;10384982;28;2028;-85
2020/12/04 12:40:55;;;;;;;;;;;3.90;99.90;;;3.25;65.43;93082.72;10404000;28;1910;-85
2020/12/04 12:45:57;;;;;;;;;;;4.10;99.90;;;3.35;65.04;93080.94;10399028;28;2069;-84
2020/12/04 12:50:59;;;;;;;;;;;4.30;99.90;;;3.53;64.57;93082.72;10394309;28;2042;-84
2020/12/04 12:56:01;;;;;;;;;;;6.40;99.90;;;3.76;62.80;93084.41;10405045;28;1953;-84
2020/12/04 13:01:04;;;;;;;;;;;5.80;99.10;;;4.11;61.63;93070.66;10396521;28;2051;-86
2020/12/04 13:06:06;;;;;;;;;;;5.50;96.90;;;4.21;61.05;93067.78;10398505;28;1876;-85
2020/12/04 13:11:08;;;;;;;;;;;5.10;94.90;;;4.33;61.19;93055.53;10402128;28;2201;-85
2020/12/04 13:16:10;;;;;;;;;;;5.30;94.80;;;4.41;61.75;93054.03;10394606;28;1952;-86
2020/12/04 13:21:14;;;;;;;;;;;6.10;95.10;;;4.50;62.51;93040.78;10418092;28;1969;-86
2020/12/04 13:31:32;;;;;;;;;;;6.90;95.10;;;4.65;62.40;93056.41;10414472;28;1770;-86
2020/12/04 13:36:34;;;;;;;;;;;5.70;94.20;;;4.57;62.87;93043.81;10415029;28;1833;-85
2020/12/04 13:41:37;;;;;;;;;;;6.40;94.70;;;4.57;62.88;93051.78;10408457;28;1895;-86
2020/12/04 13:46:39;;;;;;;;;;;6.40;95.00;;;4.48;63.36;93050.94;10411626;28;1962;-85
2020/12/04 13:51:41;;;;;;;;;;;7.50;95.40;;;4.42;63.49;93044.16;10401079;28;1922;-86
2020/12/04 13:56:46;;;;;;;;;;;5.60;94.20;;;4.38;64.03;93046.63;10401836;28;1956;-86
2020/12/04 14:01:56;;;;;;;;;;;6.10;95.00;;;4.29;64.39;93046.56;10404904;28;2007;-86
2020/12/04 14:06:58;;;;;;;;;;;5.40;94.60;;;4.33;64.33;93042.25;10400568;28;1909;-85
2020/12/04 14:12:00;;;;;;;;;;;6.10;95.30;;;4.34;64.32;93033.16;10401197;28;3155;-87
2020/12/04 14:17:04;;;;;;;;;;;5.40;94.90;;;4.23;64.90;93031.81;10414240;28;1713;-86
2020/12/04 14:22:11;;;;;;;;;;;5.40;95.30;;;4.06;65.65;93032.44;10407674;28;2005;-84
2020/12/04 14:27:13;;;;;;;;;;;5.20;95.40;;;3.76;67.23;93036.56;10421054;28;1859;-87
2020/12/04 14:32:17;;;;;;;;;;;4.90;96.40;;;3.49;68.23;93012.66;10417610;28;1566;-84
2020/12/04 14:37:26;;;;;;;;;;;5.60;97.60;;;3.29;68.73;93015.75;10418148;28;2026;-86
2020/12/04 14:42:28;;;;;;;;;;;4.50;98.30;;;3.04;69.93;93031.06;10422511;28;2084;-84
2020/12/04 14:47:35;;;;;;;;;;;4.20;99.40;;;2.85;71.32;93014.41;10409294;28;2458;-86
2020/12/04 14:52:49;;;;;;;;;;;4.10;99.90;;;2.71;72.39;93030.31;10413108;28;1852;-87
2020/12/04 15:03:16;;;;;;;;;;;4.70;99.90;;;2.45;72.89;93035.25;10404382;28;2037;-86
2020/12/04 15:08:18;;;;;;;;;;;5.10;99.90;;;2.39;73.31;93028.44;10376784;28;1598;-83
2020/12/04 15:13:20;;;;;;;;;;;5.70;99.90;;;2.27;73.68;93022.81;10397136;28;2060;-85
2020/12/04 15:18:25;;;;;;;;;;;5.10;99.90;;;2.46;71.68;93007.66;10404662;28;1930;-85
2020/12/04 15:23:27;;;;;;;;;;;3.50;99.90;;;3.66;62.51;93009.41;10391749;28;1891;-84
2020/12/04 15:28:31;;;;;;;;;;;5.70;98.40;;;4.64;56.41;92998.94;10401530;28;1729;-85
2020/12/04 15:33:34;;;;;;;;;;;5.20;90.60;;;5.22;52.32;93013.97;10394473;28;1690;-85
2020/12/04 15:38:37;;;;;;;;;;;7.10;85.90;;;5.86;49.79;93005.53;10392491;28;1631;-84
2020/12/04 15:43:39;;;;;;;;;;;7.60;81.30;;;6.09;48.21;93017.66;10397095;28;1973;-85
2020/12/04 15:48:47;;;;;;;;;;;7.70;78.90;;;6.34;47.51;93018.78;10416451;28;2363;-86
2020/12/04 15:53:59;;;;;;;;;;;8.80;76.90;;;6.22;48.66;93024.72;10397164;28;2049;-85
2020/12/04 15:59:04;;;;;;;;;;;8.00;75.90;;;6.28;47.87;93000.56;10403139;28;2247;-86
2020/12/04 16:04:13;;;;;;;;;;;8.30;75.30;;;6.35;47.66;92996.34;10394586;28;1985;-85
2020/12/04 16:09:17;;;;;;;;;;;7.40;74.30;;;6.21;48.37;93014.38;10397611;28;1555;-84
2020/12/04 16:14:20;;;;;;;;;;;7.30;74.20;;;6.05;48.91;93023.94;10391751;28;2129;-85
2020/12/04 16:24:42;;;;;;;;;;;8.60;75.10;;;5.99;49.64;93041.97;10409803;28;1914;-86
2020/12/04 16:29:47;;;;;;;;;;;8.60;75.30;;;5.97;49.91;93044.94;10387994;28;2362;-85
2020/12/04 16:40:49;;;;;;;;;;;;;;;;;;;;;
2020/12/04 16:57:55;;;;;;;;;;;;;;;;;;;;;
2020/12/04 17:03:31;;;;;;;;;;;;;;;;;;;;;
2020/12/04 17:08:41;;;;;;;;;;;7.20;76.70;;;5.17;54.10;93109.97;10450912;28;2396;-86
2020/12/04 17:13:45;;;;;;;;;;;7.70;77.90;;;4.97;54.93;93118.47;10444018;28;1972;-88
2020/12/04 17:18:50;;;;;;;;;;;6.20;78.00;;;4.86;54.70;93120.56;10450779;28;1969;-87
2020/12/04 17:24:06;;;;;;;;;;;;;;;;;;;;;
2020/12/04 17:29:28;;;;;;;;;;;;;;;;;;;;;
2020/12/04 17:34:54;;;;;;;;;;;5.80;78.70;;;4.72;55.15;93141.91;10448361;28;2217;-87
2020/12/04 17:45:43;;;;;;;;;;;5.70;79.60;;;4.68;55.69;93151.56;10430952;28;1918;-86
2020/12/04 17:50:47;;;;;;;;;;;6.90;80.20;;;4.57;56.44;93150.22;10445973;28;1951;-86
2020/12/04 17:55:49;;;;;;;;;;;6.80;80.40;;;4.74;56.03;93145.06;10440256;28;1697;-86
2020/12/04 18:00:52;;;;;;;;;;;5.70;80.10;;;4.87;55.38;93141.56;10446823;28;1669;-87
2020/12/04 18:05:55;;;;;;;;;;;7.10;80.30;;;4.92;55.28;93142.53;10469401;28;1934;-86
2020/12/04 18:11:02;;;;;;;;;;;5.90;79.70;;;4.91;55.31;93135.66;10454633;28;2013;-87
2020/12/04 18:16:05;;;;;;;;;;;5.90;79.70;;;4.79;56.81;93136.97;10453552;28;1487;-88
2020/12/04 18:26:53;;;;;;;;;;;7.10;80.50;;;4.64;56.85;93142.63;10445215;28;1993;-87
2020/12/04 18:32:06;;;;;;;;;;;5.80;80.00;;;4.43;57.91;93133.50;10468151;28;1547;-87
2020/12/04 18:42:48;;;;;;;;;;;6.70;81.70;;;4.10;59.65;93139.00;10462752;28;1879;-86
2020/12/04 18:47:59;;;;;;;;;;;5.30;82.60;;;4.02;59.88;93145.00;10440673;28;1963;-87
2020/12/04 18:53:06;;;;;;;;;;;7.00;83.90;;;4.07;61.31;93150.19;10442707;28;1912;-86
2020/12/04 18:58:08;;;;;;;;;;;6.10;84.30;;;4.05;62.28;93147.06;10466552;28;2036;-85
2020/12/04 19:03:11;;;;;;;;;;;5.20;84.80;;;4.05;60.55;93147.06;10467142;28;1974;-87
2020/12/04 19:08:18;;;;;;;;;;;6.90;85.30;;;3.98;61.99;93144.03;10460997;28;2070;-86
2020/12/04 19:13:21;;;;;;;;;;;6.30;85.80;;;3.91;61.88;93154.25;10454722;28;2000;-87
2020/12/04 19:18:33;;;;;;;;;;;6.40;85.80;;;3.85;61.54;93168.72;10433464;28;2024;-85
2020/12/04 19:23:36;;;;;;;;;;;6.30;85.80;;;3.87;61.39;93158.59;10445404;28;1936;-86
2020/12/04 19:28:38;;;;;;;;;;;4.90;85.30;;;4.00;59.32;93163.09;10459915;28;1955;-86
2020/12/04 19:33:40;;;;;;;;;;;5.90;84.60;;;3.96;59.99;93165.59;10467648;28;2103;-86
2020/12/04 19:38:42;;;;;;;;;;;5.30;84.00;;;4.06;59.20;93161.94;10450446;28;1948;-87
2020/12/04 19:43:44;;;;;;;;;;;5.10;83.90;;;4.18;58.23;93167.53;10446341;28;1993;-86
2020/12/04 19:48:47;;;;;;;;;;;6.50;83.70;;;4.04;59.95;93159.56;10435552;28;1930;-86
2020/12/04 19:53:52;;;;;;;;;;;5.80;83.90;;;4.05;59.62;93163.00;10440444;28;1873;-87
2020/12/04 19:59:01;;;;;;;;;;;5.10;83.20;;;3.95;59.97;93165.88;10457497;28;2097;-85
2020/12/04 20:04:03;;;;;;;;;;;5.00;83.40;;;3.99;59.44;93154.34;10430072;28;1968;-86
2020/12/04 20:09:05;;;;;;;;;;;6.10;84.00;;;3.94;59.37;93166.94;10432968;28;2057;-87
2020/12/04 20:14:07;;;;;;;;;;;6.20;84.00;;;3.83;59.63;93174.34;10444709;28;1871;-86
2020/12/04 20:19:09;;;;;;;;;;;5.40;83.40;;;3.74;59.80;93171.56;10463242;28;1796;-85
2020/12/04 20:24:11;;;;;;;;;;;5.60;83.70;;;3.61;60.95;93164.38;10446657;28;2040;-87
2020/12/04 20:29:14;;;;;;;;;;;4.90;84.30;;;3.83;59.12;93150.44;10453615;28;2031;-85
2020/12/04 20:34:18;;;;;;;;;;;6.60;84.00;;;3.84;59.23;93135.28;10456364;28;1752;-84
2020/12/04 20:39:20;;;;;;;;;;;6.20;83.70;;;3.89;58.05;93143.16;10461467;28;1888;-86
2020/12/04 20:44:21;;;;;;;;;;;5.30;82.30;;;3.83;58.04;93123.84;10451494;28;2189;-86
2020/12/04 20:49:25;;;;;;;;;;;5.50;82.30;;;3.85;57.80;93115.59;10439908;28;1987;-86
2020/12/04 20:54:28;;;;;;;;;;;5.40;82.00;;;3.78;58.31;93127.41;10440786;28;2086;-84
2020/12/04 20:59:29;;;;;;;;;;;4.90;82.30;;;3.68;59.04;93146.16;10445885;28;1831;-86
2020/12/04 21:04:37;;;;;;;;;;;6.00;82.80;;;3.66;58.08;93113.03;10440398;28;2437;-87
2020/12/04 21:09:39;;;;;;;;;;;5.80;82.30;;;3.60;58.78;93117.66;10471356;28;1718;-86
2020/12/04 21:14:41;;;;;;;;;;;5.00;82.30;;;3.51;60.07;93100.81;10473403;28;1756;-86
2020/12/04 21:19:43;;;;;;;;;;;5.00;83.10;;;3.47;59.24;93089.22;10458501;28;1646;-88
2020/12/04 21:24:47;;;;;;;;;;;5.80;83.10;;;3.49;59.08;93093.13;10467337;28;1977;-85
2020/12/04 21:29:49;;;;;;;;;;;4.60;82.60;;;3.47;59.65;93097.19;10470786;28;1913;-87
2020/12/04 21:34:54;;;;;;;;;;;4.50;82.70;;;3.50;57.99;93085.97;10460862;28;2101;-87
2020/12/04 21:39:58;;;;;;;;;;;5.60;82.50;;;3.43;59.31;93091.66;10437223;28;2018;-86
2020/12/04 21:45:02;;;;;;;;;;;4.50;82.60;;;3.41;58.86;93095.69;10435656;28;1906;-87
2020/12/04 21:50:06;;;;;;;;;;;5.80;83.10;;;3.31;59.85;93083.41;10443962;28;1976;-86
2020/12/04 21:55:09;;;;;;;;;;;5.00;83.20;;;3.31;60.73;93077.28;10451556;28;1907;-88
2020/12/04 22:00:11;;;;;;;;;;;4.40;83.70;;;3.40;59.66;93064.91;10446766;28;1952;-85
2020/12/04 22:05:14;;;;;;;;;;;4.50;83.70;;;3.61;59.34;93076.72;10451030;28;1914;-87
2020/12/04 22:10:16;;;;;;;;;;;5.70;83.90;;;3.95;57.11;93057.69;10459787;28;1836;-86
2020/12/04 22:15:18;;;;;;;;;;;5.40;82.00;;;4.06;56.24;93047.63;10452282;28;2013;-87
2020/12/04 22:20:23;;;;;;;;;;;5.60;81.00;;;4.06;56.41;93048.41;10439601;28;2280;-87
2020/12/04 22:25:28;;;;;;;;;;;5.70;80.50;;;4.02;56.52;93054.63;10460824;28;1890;-86
2020/12/04 22:30:33;;;;;;;;;;;7.30;81.20;;;4.20;55.75;93074.97;10463184;28;1691;-87
2020/12/04 22:35:36;;;;;;;;;;;6.80;80.40;;;4.19;56.00;93078.69;10456705;28;2288;-87
2020/12/04 22:40:44;;;;;;;;;;;6.20;80.10;;;4.16;56.29;93089.16;10462357;28;1756;-86
2020/12/04 22:45:46;;;;;;;;;;;6.60;80.30;;;4.12;56.44;93096.94;10452294;28;1967;-85
2020/12/04 22:50:48;;;;;;;;;;;6.00;80.30;;;4.12;56.40;93086.31;10444083;28;1604;-87
2020/12/04 22:55:53;;;;;;;;;;;5.80;80.10;;;4.08;56.64;93082.69;10456114;28;1735;-87
2020/12/04 23:00:55;;;;;;;;;;;6.50;80.60;;;3.97;57.01;93076.00;10461022;28;1998;-86
2020/12/04 23:05:57;;;;;;;;;;;6.90;81.10;;;3.86;57.70;93059.47;10458152;28;1972;-87
2020/12/04 23:10:59;;;;;;;;;;;4.90;80.40;;;3.79;57.86;93057.22;10453462;28;1735;-86
2020/12/04 23:16:01;;;;;;;;;;;4.80;80.50;;;3.77;57.80;93062.06;10446465;28;2254;-86
2020/12/04 23:21:05;;;;;;;;;;;4.80;80.70;;;3.74;58.13;93062.63;10441511;28;1927;-85
2020/12/04 23:26:09;;;;;;;;;;;6.20;81.70;;;3.53;59.38;93064.91;10427321;28;2289;-86
2020/12/04 23:31:11;;;;;;;;;;;4.80;81.70;;;3.30;60.09;93065.09;10440251;28;2114;-86
2020/12/04 23:36:13;;;;;;;;;;;5.20;82.40;;;3.08;61.34;93087.78;10442024;28;1479;-86
2020/12/04 23:41:17;;;;;;;;;;;6.10;84.10;;;3.03;61.78;93106.44;10439650;28;2233;-87
2020/12/04 23:46:23;;;;;;;;;;;4.20;83.80;;;2.92;62.85;93115.66;10442384;28;2339;-87
2020/12/04 23:51:25;;;;;;;;;;;4.10;84.60;;;2.85;63.12;93137.25;10440746;28;1954;-87
2020/12/04 23:56:32;;;;;;;;;;;4.30;85.20;;;2.86;62.62;93128.22;10444255;28;2164;-87
